Terminal Aerodrome Forecast
Issued by NWS

Home | Current Version | Previous Version | Text Only | Print | Product List | Glossary On
Versions: 1 2 3 4 5 6 7 8 9 10 11 12 13 14 15 16
000
FTUS41 KPBZ 201144 RRA
TAFFKL
TAF
KFKL 201144Z 2012/2112 18010KT P6SM BKN100 WS020/22050KT
     FM201500 20014G32KT P6SM BKN040
     FM202300 21012KT P6SM BKN250=

USA.gov is the U.S. government's official web portal to all federal, state and local government web resources and services.